sensor_id;sensor_type;location;lat;lon;timestamp;temperature;humidity
50838;DHT22;36815;50.884;20.584;2022-07-10T00:00:10;21;86
50838;DHT22;36815;50.884;20.584;2022-07-10T00:07:18;27;72
50838;DHT22;36815;50.884;20.584;2022-07-10T00:14:16;27;72
50838;DHT22;36815;50.884;20.584;2022-07-10T00:21:17;27;72
50838;DHT22;36815;50.884;20.584;2022-07-10T00:28:03;27;72
50838;DHT22;36815;50.884;20.584;2022-07-10T00:35:17;26;73
50838;DHT22;36815;50.884;20.584;2022-07-10T00:42:27;26;73
50838;DHT22;36815;50.884;20.584;2022-07-10T00:49:02;26;73
50838;DHT22;36815;50.884;20.584;2022-07-10T00:56:11;26;73
50838;DHT22;36815;50.884;20.584;2022-07-10T01:07:19;26;74
50838;DHT22;36815;50.884;20.584;2022-07-10T01:14:02;26;74
50838;DHT22;36815;50.884;20.584;2022-07-10T01:21:06;26;74
50838;DHT22;36815;50.884;20.584;2022-07-10T01:28:17;26;74
50838;DHT22;36815;50.884;20.584;2022-07-10T01:35:24;25;75
50838;DHT22;36815;50.884;20.584;2022-07-10T01:42:06;25;75
50838;DHT22;36815;50.884;20.584;2022-07-10T01:49:21;25;75
50838;DHT22;36815;50.884;20.584;2022-07-10T01:56:04;25;75
50838;DHT22;36815;50.884;20.584;2022-07-10T02:00:07;25;75
50838;DHT22;36815;50.884;20.584;2022-07-10T02:07:05;26;83
50838;DHT22;36815;50.884;20.584;2022-07-10T02:14:17;26;83
50838;DHT22;36815;50.884;20.584;2022-07-10T02:21:08;26;83
50838;DHT22;36815;50.884;20.584;2022-07-10T02:28:10;26;83
50838;DHT22;36815;50.884;20.584;2022-07-10T02:35:04;25;83
50838;DHT22;36815;50.884;20.584;2022-07-10T02:42:07;25;83
50838;DHT22;36815;50.884;20.584;2022-07-10T02:49:07;25;83
50838;DHT22;36815;50.884;20.584;2022-07-10T02:56:17;25;83
50838;DHT22;36815;50.884;20.584;2022-07-10T03:00:19;25;83
50838;DHT22;36815;50.884;20.584;2022-07-10T03:07:06;25;85
50838;DHT22;36815;50.884;20.584;2022-07-10T03:14:21;25;85
50838;DHT22;36815;50.884;20.584;2022-07-10T03:21:18;25;85
50838;DHT22;36815;50.884;20.584;2022-07-10T03:28:13;25;85
50838;DHT22;36815;50.884;20.584;2022-07-10T03:35:03;25;83
50838;DHT22;36815;50.884;20.584;2022-07-10T03:42:03;25;83
50838;DHT22;36815;50.884;20.584;2022-07-10T03:49:17;25;83
50838;DHT22;36815;50.884;20.584;2022-07-10T04:00:09;25;83
50838;DHT22;36815;50.884;20.584;2022-07-10T04:07:07;24;83
50838;DHT22;36815;50.884;20.584;2022-07-10T04:14:05;24;83
50838;DHT22;36815;50.884;20.584;2022-07-10T04:21:02;24;83
50838;DHT22;36815;50.884;20.584;2022-07-10T04:28:02;24;83
50838;DHT22;36815;50.884;20.584;2022-07-10T04:35:09;25;86
50838;DHT22;36815;50.884;20.584;2022-07-10T04:42:20;25;86
50838;DHT22;36815;50.884;20.584;2022-07-10T04:49:02;25;86
50838;DHT22;36815;50.884;20.584;2022-07-10T04:56:04;25;86
50838;DHT22;36815;50.884;20.584;2022-07-10T05:00:04;25;86
50838;DHT22;36815;50.884;20.584;2022-07-10T05:07:19;25;88
50838;DHT22;36815;50.884;20.584;2022-07-10T05:14:17;25;88
50838;DHT22;36815;50.884;20.584;2022-07-10T05:21:19;25;88
50838;DHT22;36815;50.884;20.584;2022-07-10T05:28:20;25;88
50838;DHT22;36815;50.884;20.584;2022-07-10T05:35:08;24;89
50838;DHT22;36815;50.884;20.584;2022-07-10T05:42:06;24;89
50838;DHT22;36815;50.884;20.584;2022-07-10T05:49:02;24;89
50838;DHT22;36815;50.884;20.584;2022-07-10T05:56:04;24;89
50838;DHT22;36815;50.884;20.584;2022-07-10T06:00:02;24;89
50838;DHT22;36815;50.884;20.584;2022-07-10T06:07:18;24;91
50838;DHT22;36815;50.884;20.584;2022-07-10T06:14:17;24;91
50838;DHT22;36815;50.884;20.584;2022-07-10T06:21:04;24;91
50838;DHT22;36815;50.884;20.584;2022-07-10T06:28:04;24;91
50838;DHT22;36815;50.884;20.584;2022-07-10T06:35:21;23;93
50838;DHT22;36815;50.884;20.584;2022-07-10T06:42:16;23;93
50838;DHT22;36815;50.884;20.584;2022-07-10T06:49:09;23;93
50838;DHT22;36815;50.884;20.584;2022-07-10T06:56:06;23;93
50838;DHT22;36815;50.884;20.584;2022-07-10T07:00:21;23;93
50838;DHT22;36815;50.884;20.584;2022-07-10T07:07:15;23;93
50838;DHT22;36815;50.884;20.584;2022-07-10T07:14:02;23;93
50838;DHT22;36815;50.884;20.584;2022-07-10T07:28:05;23;93
50838;DHT22;36815;50.884;20.584;2022-07-10T07:42:04;23;92
50838;DHT22;36815;50.884;20.584;2022-07-10T07:49:18;23;92
50838;DHT22;36815;50.884;20.584;2022-07-10T07:56:15;23;92
50838;DHT22;36815;50.884;20.584;2022-07-10T08:00:15;23;92
50838;DHT22;36815;50.884;20.584;2022-07-10T08:14:04;22;93
50838;DHT22;36815;50.884;20.584;2022-07-10T08:21:04;22;93
50838;DHT22;36815;50.884;20.584;2022-07-10T08:28:21;22;93
50838;DHT22;36815;50.884;20.584;2022-07-10T08:42:25;22;94
50838;DHT22;36815;50.884;20.584;2022-07-10T08:49:17;22;94
50838;DHT22;36815;50.884;20.584;2022-07-10T08:56:15;22;94
50838;DHT22;36815;50.884;20.584;2022-07-10T09:00:18;22;94
50838;DHT22;36815;50.884;20.584;2022-07-10T09:14:28;22;94
50838;DHT22;36815;50.884;20.584;2022-07-10T09:21:32;22;94
50838;DHT22;36815;50.884;20.584;2022-07-10T09:28:05;22;94
50838;DHT22;36815;50.884;20.584;2022-07-10T09:42:42;22;95
50838;DHT22;36815;50.884;20.584;2022-07-10T09:49:30;22;95
50838;DHT22;36815;50.884;20.584;2022-07-10T09:56:39;22;95
50838;DHT22;36815;50.884;20.584;2022-07-10T10:00:03;22;95
50838;DHT22;36815;50.884;20.584;2022-07-10T10:14:08;22;96
50838;DHT22;36815;50.884;20.584;2022-07-10T10:21:08;22;96
50838;DHT22;36815;50.884;20.584;2022-07-10T10:28:28;22;96
50838;DHT22;36815;50.884;20.584;2022-07-10T10:35:47;22;96
50838;DHT22;36815;50.884;20.584;2022-07-10T10:42:46;22;97
50838;DHT22;36815;50.884;20.584;2022-07-10T10:49:07;22;97
50838;DHT22;36815;50.884;20.584;2022-07-10T10:56:24;22;97
50838;DHT22;36815;50.884;20.584;2022-07-10T11:00:30;22;97
50838;DHT22;36815;50.884;20.584;2022-07-10T11:14:06;21;97
50838;DHT22;36815;50.884;20.584;2022-07-10T11:21:46;21;97
50838;DHT22;36815;50.884;20.584;2022-07-10T11:28:54;21;97
50838;DHT22;36815;50.884;20.584;2022-07-10T11:35:13;21;97
50838;DHT22;36815;50.884;20.584;2022-07-10T11:42:04;21;97
50838;DHT22;36815;50.884;20.584;2022-07-10T11:49:19;21;97
50838;DHT22;36815;50.884;20.584;2022-07-10T11:56:22;21;97
50838;DHT22;36815;50.884;20.584;2022-07-10T12:00:27;21;97
50838;DHT22;36815;50.884;20.584;2022-07-10T12:14:14;21;97
50838;DHT22;36815;50.884;20.584;2022-07-10T12:21:15;21;97
50838;DHT22;36815;50.884;20.584;2022-07-10T12:28:18;21;97
50838;DHT22;36815;50.884;20.584;2022-07-10T12:35:14;21;97
50838;DHT22;36815;50.884;20.584;2022-07-10T12:42:28;22;96
50838;DHT22;36815;50.884;20.584;2022-07-10T12:49:18;22;96
50838;DHT22;36815;50.884;20.584;2022-07-10T12:56:02;22;96
50838;DHT22;36815;50.884;20.584;2022-07-10T13:00:16;22;96
50838;DHT22;36815;50.884;20.584;2022-07-10T13:07:29;22;96
50838;DHT22;36815;50.884;20.584;2022-07-10T13:14:16;22;96
50838;DHT22;36815;50.884;20.584;2022-07-10T13:21:04;22;96
50838;DHT22;36815;50.884;20.584;2022-07-10T13:28:21;22;96
50838;DHT22;36815;50.884;20.584;2022-07-10T13:35:13;22;96
50838;DHT22;36815;50.884;20.584;2022-07-10T13:42:06;22;87
50838;DHT22;36815;50.884;20.584;2022-07-10T13:49:23;22;87
50838;DHT22;36815;50.884;20.584;2022-07-10T13:56:04;22;87
50838;DHT22;36815;50.884;20.584;2022-07-10T14:00:01;22;87
50838;DHT22;36815;50.884;20.584;2022-07-10T14:07:05;22;87
50838;DHT22;36815;50.884;20.584;2022-07-10T14:14:05;22;87
50838;DHT22;36815;50.884;20.584;2022-07-10T14:21:14;22;87
50838;DHT22;36815;50.884;20.584;2022-07-10T14:28:15;22;87
50838;DHT22;36815;50.884;20.584;2022-07-10T14:35:09;22;87
50838;DHT22;36815;50.884;20.584;2022-07-10T14:42:05;22;86
50838;DHT22;36815;50.884;20.584;2022-07-10T14:49:20;22;86
50838;DHT22;36815;50.884;20.584;2022-07-10T14:56:03;22;86
50838;DHT22;36815;50.884;20.584;2022-07-10T15:00:02;22;86
50838;DHT22;36815;50.884;20.584;2022-07-10T15:07:02;22;86
50838;DHT22;36815;50.884;20.584;2022-07-10T15:14:02;23;85
50838;DHT22;36815;50.884;20.584;2022-07-10T15:21:17;23;85
50838;DHT22;36815;50.884;20.584;2022-07-10T15:28:23;23;85
50838;DHT22;36815;50.884;20.584;2022-07-10T15:35:23;23;85
50838;DHT22;36815;50.884;20.584;2022-07-10T15:42:18;23;84
50838;DHT22;36815;50.884;20.584;2022-07-10T15:49:25;23;84
50838;DHT22;36815;50.884;20.584;2022-07-10T15:56:18;23;84
50838;DHT22;36815;50.884;20.584;2022-07-10T16:00:24;23;84
50838;DHT22;36815;50.884;20.584;2022-07-10T16:07:15;23;84
50838;DHT22;36815;50.884;20.584;2022-07-10T16:14:16;24;83
50838;DHT22;36815;50.884;20.584;2022-07-10T16:21:14;24;83
50838;DHT22;36815;50.884;20.584;2022-07-10T16:28:04;24;83
50838;DHT22;36815;50.884;20.584;2022-07-10T16:35:03;24;83
50838;DHT22;36815;50.884;20.584;2022-07-10T16:49:20;24;83
50838;DHT22;36815;50.884;20.584;2022-07-10T16:56:02;24;83
50838;DHT22;36815;50.884;20.584;2022-07-10T17:07:09;24;83
50838;DHT22;36815;50.884;20.584;2022-07-10T17:21:14;24;82
50838;DHT22;36815;50.884;20.584;2022-07-10T17:28:19;24;82
50838;DHT22;36815;50.884;20.584;2022-07-10T17:35:19;24;82
50838;DHT22;36815;50.884;20.584;2022-07-10T17:49:03;24;86
50838;DHT22;36815;50.884;20.584;2022-07-10T17:56:03;24;86
50838;DHT22;36815;50.884;20.584;2022-07-10T18:00:15;24;86
50838;DHT22;36815;50.884;20.584;2022-07-10T18:07:05;24;86
50838;DHT22;36815;50.884;20.584;2022-07-10T18:21:15;23;89
50838;DHT22;36815;50.884;20.584;2022-07-10T18:28:17;23;89
50838;DHT22;36815;50.884;20.584;2022-07-10T18:35:18;23;89
50838;DHT22;36815;50.884;20.584;2022-07-10T18:49:06;23;88
50838;DHT22;36815;50.884;20.584;2022-07-10T18:56:18;23;88
50838;DHT22;36815;50.884;20.584;2022-07-10T19:00:13;23;88
50838;DHT22;36815;50.884;20.584;2022-07-10T19:07:08;23;88
50838;DHT22;36815;50.884;20.584;2022-07-10T19:21:03;23;88
50838;DHT22;36815;50.884;20.584;2022-07-10T19:28:18;23;88
50838;DHT22;36815;50.884;20.584;2022-07-10T19:35:15;23;88
50838;DHT22;36815;50.884;20.584;2022-07-10T19:49:19;23;87
50838;DHT22;36815;50.884;20.584;2022-07-10T19:56:14;23;87
50838;DHT22;36815;50.884;20.584;2022-07-10T20:00:11;23;87
50838;DHT22;36815;50.884;20.584;2022-07-10T20:07:16;23;87
50838;DHT22;36815;50.884;20.584;2022-07-10T20:21:19;23;85
50838;DHT22;36815;50.884;20.584;2022-07-10T20:28:14;23;85
50838;DHT22;36815;50.884;20.584;2022-07-10T20:35:15;23;85
50838;DHT22;36815;50.884;20.584;2022-07-10T20:49:19;23;82
50838;DHT22;36815;50.884;20.584;2022-07-10T20:56:02;23;82
50838;DHT22;36815;50.884;20.584;2022-07-10T21:00:17;23;82
50838;DHT22;36815;50.884;20.584;2022-07-10T21:07:16;23;82
50838;DHT22;36815;50.884;20.584;2022-07-10T21:21:04;23;80
50838;DHT22;36815;50.884;20.584;2022-07-10T21:28:17;23;80
50838;DHT22;36815;50.884;20.584;2022-07-10T21:35:21;23;80
50838;DHT22;36815;50.884;20.584;2022-07-10T21:49:04;22;82
50838;DHT22;36815;50.884;20.584;2022-07-10T21:56:16;22;82
50838;DHT22;36815;50.884;20.584;2022-07-10T22:00:04;22;82
50838;DHT22;36815;50.884;20.584;2022-07-10T22:07:02;22;82
50838;DHT22;36815;50.884;20.584;2022-07-10T22:14:19;22;82
50838;DHT22;36815;50.884;20.584;2022-07-10T22:21:18;22;82
50838;DHT22;36815;50.884;20.584;2022-07-10T22:28:18;22;82
50838;DHT22;36815;50.884;20.584;2022-07-10T22:35:03;22;84
50838;DHT22;36815;50.884;20.584;2022-07-10T22:42:03;22;84
50838;DHT22;36815;50.884;20.584;2022-07-10T22:49:18;22;84
50838;DHT22;36815;50.884;20.584;2022-07-10T22:56:06;22;84
50838;DHT22;36815;50.884;20.584;2022-07-10T23:07:19;22;85
50838;DHT22;36815;50.884;20.584;2022-07-10T23:14:02;22;85
50838;DHT22;36815;50.884;20.584;2022-07-10T23:21:17;22;85
50838;DHT22;36815;50.884;20.584;2022-07-10T23:28:18;22;85
50838;DHT22;36815;50.884;20.584;2022-07-10T23:35:16;21;85
50838;DHT22;36815;50.884;20.584;2022-07-10T23:42:17;21;85
50838;DHT22;36815;50.884;20.584;2022-07-10T23:56:02;21;85
